Time;durP1;ratioP1;P1;durP2;ratioP2;P2;SDS_P1;SDS_P2;PMS_P1;PMS_P2;Temp;Humidity;BMP_temperature;BMP_pressure;BME280_temperature;BME280_humidity;BME280_pressure;Samples;Min_cycle;Max_cycle;Signal;HPM_P1;HPM_P2
2021/09/30 00:00:18;;;;;;;3.73;3.27;;;10.80;99.90;;;;;;4968014;28;20660;-69
2021/09/30 00:02:45;;;;;;;3.77;2.83;;;10.70;99.90;;;;;;4965001;28;20216;-69
2021/09/30 00:05:12;;;;;;;5.93;2.97;;;10.70;99.90;;;;;;4960537;28;20202;-69
2021/09/30 00:07:39;;;;;;;8.00;3.53;;;10.80;99.90;;;;;;4962677;28;20233;-69
2021/09/30 00:10:09;;;;;;;3.70;2.60;;;10.70;99.90;;;;;;4960212;28;20197;-69
2021/09/30 00:12:42;;;;;;;7.20;3.00;;;10.70;99.90;;;;;;4963518;28;20623;-69
2021/09/30 00:15:13;;;;;;;4.60;2.90;;;10.70;99.90;;;;;;4941105;28;20601;-69
2021/09/30 00:34:13;;;;;;;3.60;2.93;;;10.60;99.90;;;;;;4969251;28;20559;-69
2021/09/30 00:39:48;;;;;;;4.93;3.10;;;10.60;99.90;;;;;;4959172;28;20208;-69
2021/09/30 00:42:25;;;;;;;7.13;2.90;;;10.50;99.90;;;;;;4961610;28;20206;-69
2021/09/30 00:47:45;;;;;;;8.07;3.00;;;10.60;99.90;;;;;;4970266;28;20247;-69
2021/09/30 00:50:24;;;;;;;3.57;3.13;;;10.60;99.90;;;;;;4970595;28;20209;-69
2021/09/30 00:53:02;;;;;;;3.30;3.00;;;10.50;99.90;;;;;;4955634;28;20264;-69
2021/09/30 00:55:59;;;;;;;6.97;3.47;;;10.60;99.90;;;;;;4949120;28;20236;-69
2021/09/30 01:18:54;;;;;;;4.40;2.80;;;10.50;99.90;;;;;;4956487;28;20200;-69
2021/09/30 01:46:38;;;;;;;3.83;2.87;;;10.60;99.90;;;;;;4921375;28;20260;-69
2021/09/30 01:52:21;;;;;;;6.07;2.83;;;10.50;99.90;;;;;;4960959;28;20265;-69
2021/09/30 02:20:21;;;;;;;4.97;3.13;;;10.60;99.90;;;;;;4961482;28;20289;-72
2021/09/30 02:26:07;;;;;;;4.70;3.40;;;10.50;99.90;;;;;;4965979;28;20216;-72
2021/09/30 02:28:44;;;;;;;6.23;3.00;;;10.50;99.90;;;;;;4960949;28;20262;-73
2021/09/30 02:58:58;;;;;;;3.47;2.83;;;10.50;99.90;;;;;;4953655;28;20244;-73
2021/09/30 03:01:28;;;;;;;3.50;3.00;;;10.50;99.90;;;;;;4972618;28;20197;-73
2021/09/30 03:03:57;;;;;;;5.67;3.60;;;10.50;99.90;;;;;;4963556;28;20210;-73
2021/09/30 03:06:27;;;;;;;5.13;3.23;;;10.40;99.90;;;;;;4969715;28;20205;-73
2021/09/30 03:08:58;;;;;;;3.60;2.67;;;10.40;99.90;;;;;;4972417;28;20225;-73
2021/09/30 03:11:26;;;;;;;5.77;3.17;;;10.40;99.90;;;;;;4962517;28;20210;-73
2021/09/30 03:13:54;;;;;;;5.93;3.40;;;10.30;99.90;;;;;;4957510;28;20210;-74
2021/09/30 03:16:27;;;;;;;4.57;3.40;;;10.20;99.90;;;;;;4962601;28;20256;-73
2021/09/30 03:18:58;;;;;;;7.23;3.70;;;10.20;99.90;;;;;;4960260;28;20238;-73
2021/09/30 03:24:15;;;;;;;7.27;3.97;;;10.10;99.90;;;;;;4961910;28;20209;-73
2021/09/30 03:26:44;;;;;;;7.00;3.67;;;10.10;99.90;;;;;;4957765;28;20214;-73
2021/09/30 03:29:13;;;;;;;4.10;3.70;;;10.00;99.90;;;;;;4956380;28;20219;-73
2021/09/30 03:31:40;;;;;;;6.90;4.67;;;10.00;99.90;;;;;;4963565;28;20202;-73
2021/09/30 03:34:08;;;;;;;9.73;4.30;;;10.00;99.90;;;;;;4973346;28;20574;-74
2021/09/30 03:36:37;;;;;;;7.50;4.37;;;10.00;99.90;;;;;;4973712;28;20212;-74
2021/09/30 03:39:04;;;;;;;8.07;4.80;;;10.00;99.90;;;;;;4961427;28;20579;-73
2021/09/30 03:41:31;;;;;;;6.63;4.30;;;9.90;99.90;;;;;;4963576;28;20206;-74
2021/09/30 03:43:58;;;;;;;10.13;5.53;;;9.90;99.90;;;;;;4965689;28;20205;-73
2021/09/30 03:46:26;;;;;;;9.50;5.83;;;9.90;99.90;;;;;;4959178;28;20673;-73
2021/09/30 03:48:55;;;;;;;8.23;5.37;;;9.90;99.90;;;;;;4968484;28;20606;-73
2021/09/30 03:51:31;;;;;;;8.33;5.50;;;9.90;99.90;;;;;;4970887;28;20711;-74
2021/09/30 03:54:12;;;;;;;7.87;5.73;;;9.90;99.90;;;;;;4957196;28;20214;-73
2021/09/30 03:56:50;;;;;;;8.43;5.77;;;9.90;99.90;;;;;;4955476;28;20206;-73
2021/09/30 03:59:19;;;;;;;11.23;6.03;;;9.80;99.90;;;;;;4952811;28;20211;-73
2021/09/30 04:01:52;;;;;;;6.70;5.73;;;9.80;99.90;;;;;;4971038;28;20206;-73
2021/09/30 04:04:19;;;;;;;6.97;5.53;;;9.70;99.90;;;;;;4960489;28;20652;-74
2021/09/30 04:06:45;;;;;;;8.47;5.07;;;9.70;99.90;;;;;;4957262;28;20214;-74
2021/09/30 04:09:14;;;;;;;6.93;5.10;;;9.70;99.90;;;;;;4961805;28;20214;-74
2021/09/30 04:11:41;;;;;;;8.83;5.07;;;9.70;99.90;;;;;;4961309;28;20206;-74
2021/09/30 04:14:08;;;;;;;9.17;4.70;;;9.60;99.90;;;;;;4962768;28;20253;-74
2021/09/30 04:16:35;;;;;;;5.67;4.30;;;9.60;99.90;;;;;;4960067;28;20297;-73
2021/09/30 04:19:02;;;;;;;6.63;4.60;;;9.60;99.90;;;;;;4970560;28;20200;-73
2021/09/30 04:21:31;;;;;;;9.27;5.43;;;9.50;99.90;;;;;;4964435;28;20201;-73
2021/09/30 04:23:58;;;;;;;9.77;5.80;;;9.60;99.90;;;;;;4970800;28;20233;-74
2021/09/30 04:26:27;;;;;;;10.27;6.00;;;9.50;99.90;;;;;;4969252;28;20206;-73
2021/09/30 04:28:53;;;;;;;10.77;5.77;;;9.50;99.90;;;;;;4963760;28;20222;-73
2021/09/30 04:31:23;;;;;;;9.17;6.43;;;9.50;99.90;;;;;;4961872;28;20198;-73
2021/09/30 04:33:50;;;;;;;8.20;5.63;;;9.50;99.90;;;;;;4966149;28;20213;-73
2021/09/30 04:36:17;;;;;;;8.00;5.10;;;9.50;99.90;;;;;;4957937;28;20216;-72
2021/09/30 04:38:45;;;;;;;9.70;5.80;;;9.50;99.90;;;;;;4956186;28;20383;-74
2021/09/30 04:41:12;;;;;;;7.60;5.23;;;9.40;99.90;;;;;;4965513;28;20210;-74
2021/09/30 04:43:41;;;;;;;7.80;4.97;;;9.40;99.90;;;;;;4959894;28;20294;-74
2021/09/30 04:46:08;;;;;;;9.07;5.10;;;9.40;99.90;;;;;;4971565;28;20212;-73
2021/09/30 04:48:35;;;;;;;5.83;4.80;;;9.40;99.90;;;;;;4957060;28;20233;-74
2021/09/30 04:51:02;;;;;;;6.27;5.43;;;9.40;99.90;;;;;;4969989;28;20227;-74
2021/09/30 04:53:28;;;;;;;7.13;5.10;;;9.40;99.90;;;;;;4968552;28;20205;-74
2021/09/30 04:55:55;;;;;;;7.77;5.03;;;9.40;99.90;;;;;;4968637;28;20574;-74
2021/09/30 04:58:22;;;;;;;5.93;4.60;;;9.40;99.90;;;;;;4956086;28;20212;-73
2021/09/30 05:00:51;;;;;;;7.63;5.30;;;9.40;99.90;;;;;;4965805;28;20215;-74
2021/09/30 05:03:18;;;;;;;7.43;4.77;;;9.40;99.90;;;;;;4970711;28;20211;-73
2021/09/30 05:05:45;;;;;;;8.40;5.10;;;9.40;99.90;;;;;;4971170;28;20205;-74
2021/09/30 05:08:12;;;;;;;8.67;5.03;;;9.40;99.90;;;;;;4969330;28;20300;-74
2021/09/30 05:10:41;;;;;;;5.80;4.77;;;9.40;99.90;;;;;;4966259;28;20685;-74
2021/09/30 05:13:10;;;;;;;7.53;4.87;;;9.40;99.90;;;;;;4953383;28;20243;-73
2021/09/30 05:15:37;;;;;;;8.50;4.87;;;9.40;99.90;;;;;;4961439;28;20198;-73
2021/09/30 05:18:06;;;;;;;7.97;5.10;;;9.40;99.90;;;;;;4959278;28;20616;-70
2021/09/30 05:20:33;;;;;;;8.20;5.00;;;9.40;99.90;;;;;;4966196;28;20210;-70
2021/09/30 05:23:00;;;;;;;8.33;5.33;;;9.50;99.90;;;;;;4963201;28;20198;-70
2021/09/30 05:25:27;;;;;;;9.83;5.27;;;9.50;99.90;;;;;;4970874;28;20210;-70
2021/09/30 05:27:54;;;;;;;13.47;6.07;;;9.60;99.90;;;;;;4959688;28;20238;-70
2021/09/30 05:30:22;;;;;;;11.27;5.53;;;9.70;99.90;;;;;;4963021;28;20229;-70
2021/09/30 05:32:50;;;;;;;8.60;6.10;;;9.70;99.90;;;;;;4966862;28;20209;-70
2021/09/30 05:35:18;;;;;;;7.13;5.60;;;9.70;99.90;;;;;;4970172;28;20210;-71
2021/09/30 05:37:45;;;;;;;9.97;5.77;;;9.70;99.90;;;;;;4961069;28;20661;-70
2021/09/30 05:40:15;;;;;;;6.50;5.17;;;9.70;99.90;;;;;;4954493;28;20289;-71
2021/09/30 05:42:42;;;;;;;9.20;6.30;;;9.70;99.90;;;;;;4955372;28;20297;-71
2021/09/30 05:45:11;;;;;;;8.57;6.13;;;9.80;99.90;;;;;;4954293;28;20206;-71
2021/09/30 05:47:39;;;;;;;10.67;6.30;;;9.80;99.90;;;;;;4965631;28;20201;-71
2021/09/30 05:50:07;;;;;;;10.47;5.93;;;9.80;99.90;;;;;;4968182;28;20229;-71
2021/09/30 05:52:35;;;;;;;8.30;6.40;;;9.80;99.90;;;;;;4963978;28;20202;-72
2021/09/30 05:55:04;;;;;;;10.07;6.10;;;9.80;99.90;;;;;;4972126;28;20224;-72
2021/09/30 05:57:31;;;;;;;7.37;5.93;;;9.90;99.90;;;;;;4971843;28;20209;-71
2021/09/30 06:00:07;;;;;;;6.90;5.97;;;9.90;99.90;;;;;;4960506;28;20541;-71
2021/09/30 06:10:52;;;;;;;8.70;6.00;;;10.10;99.90;;;;;;4967573;28;20329;-71
2021/09/30 06:13:25;;;;;;;10.93;6.30;;;10.00;99.90;;;;;;4970302;28;20235;-71
2021/09/30 06:15:52;;;;;;;8.27;5.73;;;10.00;99.90;;;;;;4962994;28;20206;-71
2021/09/30 06:18:19;;;;;;;9.77;5.77;;;10.00;99.90;;;;;;4961129;28;20582;-71
2021/09/30 06:20:46;;;;;;;9.10;5.30;;;10.00;99.90;;;;;;4970151;28;20624;-71
2021/09/30 06:23:14;;;;;;;8.00;5.70;;;10.00;99.90;;;;;;4962412;28;20246;-71
2021/09/30 06:25:41;;;;;;;8.33;5.70;;;10.10;99.90;;;;;;4969968;28;20210;-71
2021/09/30 06:28:08;;;;;;;9.67;6.53;;;10.10;99.90;;;;;;4958549;28;20202;-71
2021/09/30 06:30:35;;;;;;;16.27;7.33;;;10.10;99.90;;;;;;4960393;28;20660;-71
2021/09/30 06:33:02;;;;;;;10.97;5.80;;;10.20;99.90;;;;;;4972818;28;20206;-71
2021/09/30 06:35:28;;;;;;;8.77;6.57;;;10.20;99.90;;;;;;4974277;28;20210;-72
2021/09/30 06:37:55;;;;;;;9.00;6.97;;;10.20;99.90;;;;;;4962223;28;20739;-71
2021/09/30 06:40:24;;;;;;;10.97;6.90;;;10.30;99.90;;;;;;4966282;28;20203;-71
2021/09/30 06:42:50;;;;;;;10.07;6.60;;;10.40;99.90;;;;;;4970887;28;20212;-70
2021/09/30 06:45:17;;;;;;;10.77;7.20;;;10.40;99.90;;;;;;4970701;28;20209;-71
2021/09/30 06:47:44;;;;;;;10.70;6.80;;;10.40;99.90;;;;;;4965701;28;20205;-71
2021/09/30 06:50:13;;;;;;;11.37;6.50;;;10.50;99.90;;;;;;4973848;28;20247;-70
2021/09/30 06:52:40;;;;;;;9.03;5.37;;;10.60;99.90;;;;;;4961172;28;20206;-70
2021/09/30 06:55:08;;;;;;;8.43;4.90;;;10.60;99.90;;;;;;4974370;28;20217;-71
2021/09/30 06:57:36;;;;;;;9.40;5.60;;;10.70;99.90;;;;;;4974454;28;20231;-71
2021/09/30 07:00:09;;;;;;;11.67;6.40;;;10.70;99.90;;;;;;4972329;28;20257;-71
2021/09/30 07:02:38;;;;;;;9.43;5.93;;;10.60;99.90;;;;;;4961378;28;20664;-71
2021/09/30 07:05:05;;;;;;;9.37;5.30;;;10.70;99.90;;;;;;4964152;28;20571;-71
2021/09/30 07:07:33;;;;;;;10.90;5.70;;;10.60;99.90;;;;;;4962179;28;20203;-71
2021/09/30 07:10:00;;;;;;;8.70;5.00;;;10.70;99.90;;;;;;4957801;28;20222;-71
2021/09/30 07:12:27;;;;;;;10.03;6.30;;;10.70;99.90;;;;;;4970157;28;20250;-71
2021/09/30 07:14:56;;;;;;;11.40;5.20;;;10.60;99.90;;;;;;4967329;28;20202;-71
2021/09/30 07:17:25;;;;;;;8.23;5.70;;;10.60;99.90;;;;;;4967097;28;20217;-71
2021/09/30 07:19:52;;;;;;;11.77;6.37;;;10.60;99.90;;;;;;4964274;28;20210;-71
2021/09/30 07:22:18;;;;;;;12.43;6.40;;;10.70;99.90;;;;;;4964197;28;20209;-71
2021/09/30 07:24:45;;;;;;;11.70;6.93;;;10.90;99.90;;;;;;4968497;28;20201;-71
2021/09/30 07:27:12;;;;;;;9.43;6.27;;;11.00;99.90;;;;;;4965172;28;20664;-71
2021/09/30 07:29:39;;;;;;;9.73;5.50;;;11.30;99.90;;;;;;4969412;28;20225;-72
2021/09/30 07:32:08;;;;;;;10.67;5.07;;;12.70;99.90;;;;;;4970806;28;20212;-71
2021/09/30 07:34:35;;;;;;;11.07;4.80;;;13.40;99.90;;;;;;4960124;28;20207;-71
2021/09/30 07:37:02;;;;;;;10.70;5.00;;;13.00;99.90;;;;;;4967009;28;20224;-72
2021/09/30 07:39:30;;;;;;;8.87;4.00;;;12.30;99.90;;;;;;4952754;28;20709;-71
2021/09/30 07:41:57;;;;;;;9.90;4.10;;;12.10;99.90;;;;;;4960608;28;20206;-71
2021/09/30 07:44:25;;;;;;;7.20;3.90;;;12.10;99.90;;;;;;4969243;28;20209;-71
2021/09/30 07:46:53;;;;;;;6.20;4.17;;;11.90;99.90;;;;;;4962278;28;20573;-72
2021/09/30 07:49:22;;;;;;;9.27;4.20;;;11.80;99.90;;;;;;4962044;28;20303;-72
2021/09/30 07:51:49;;;;;;;12.03;4.57;;;11.90;99.90;;;;;;4961810;28;20228;-72
2021/09/30 07:54:16;;;;;;;7.37;4.00;;;11.80;99.90;;;;;;4971021;28;20214;-71
2021/09/30 07:56:43;;;;;;;9.83;3.90;;;11.80;99.90;;;;;;4968896;28;20213;-71
2021/09/30 07:59:10;;;;;;;7.67;3.63;;;11.80;99.90;;;;;;4969116;28;20206;-72
2021/09/30 08:01:37;;;;;;;9.07;4.20;;;11.80;99.90;;;;;;4969597;28;20679;-71
2021/09/30 08:04:04;;;;;;;8.60;3.57;;;11.90;99.90;;;;;;4967794;28;20591;-72
2021/09/30 08:06:33;;;;;;;6.17;3.50;;;12.10;99.90;;;;;;4960719;28;20206;-72
2021/09/30 08:09:00;;;;;;;9.27;3.87;;;12.00;99.90;;;;;;4959249;28;20211;-71
2021/09/30 08:11:28;;;;;;;8.57;3.60;;;12.10;99.90;;;;;;4959320;28;20221;-72
2021/09/30 08:13:55;;;;;;;4.10;3.20;;;12.20;99.90;;;;;;4964097;28;20675;-72
2021/09/30 08:16:23;;;;;;;9.27;3.50;;;12.10;99.90;;;;;;4962959;28;20221;-71
2021/09/30 08:18:50;;;;;;;4.80;3.50;;;12.20;99.90;;;;;;4956506;28;20206;-72
2021/09/30 08:21:18;;;;;;;7.47;3.43;;;12.10;99.90;;;;;;4964467;28;20761;-72
2021/09/30 08:23:47;;;;;;;7.53;3.57;;;12.20;99.90;;;;;;4967704;28;20570;-71
2021/09/30 08:26:18;;;;;;;4.90;3.30;;;12.20;99.90;;;;;;4966593;28;20694;-72
2021/09/30 08:28:48;;;;;;;5.37;3.17;;;12.20;99.90;;;;;;4962631;28;20225;-72
2021/09/30 08:31:15;;;;;;;6.03;2.93;;;12.20;99.90;;;;;;4960179;28;20254;-72
2021/09/30 08:33:42;;;;;;;9.13;3.40;;;12.30;99.90;;;;;;4964623;28;20326;-72
2021/09/30 08:36:13;;;;;;;6.60;4.10;;;12.40;99.90;;;;;;4956005;28;20214;-72
2021/09/30 08:38:40;;;;;;;8.50;3.30;;;12.50;99.90;;;;;;4955765;28;20679;-72
2021/09/30 08:41:11;;;;;;;7.03;3.23;;;12.50;99.90;;;;;;4953887;28;20206;-72
2021/09/30 08:43:38;;;;;;;9.10;3.13;;;12.60;99.90;;;;;;4965071;28;20218;-72
2021/09/30 08:46:06;;;;;;;7.40;2.80;;;12.60;99.90;;;;;;4961326;28;20210;-72
2021/09/30 08:48:34;;;;;;;5.50;2.90;;;12.70;99.90;;;;;;4953694;28;20207;-72
2021/09/30 08:51:01;;;;;;;5.97;2.83;;;12.70;99.90;;;;;;4959665;28;20231;-72
2021/09/30 08:53:28;;;;;;;7.03;3.07;;;12.80;99.90;;;;;;4960474;28;20206;-73
2021/09/30 08:55:55;;;;;;;5.47;2.57;;;12.90;99.90;;;;;;4961460;28;20214;-72
2021/09/30 08:58:23;;;;;;;5.67;2.83;;;12.90;99.90;;;;;;4955919;28;20216;-72
2021/09/30 09:00:53;;;;;;;8.57;3.13;;;12.90;99.90;;;;;;4956784;28;20212;-73
2021/09/30 09:03:32;;;;;;;5.47;2.53;;;13.10;99.90;;;;;;4958120;28;20210;-72
2021/09/30 09:05:59;;;;;;;5.70;2.73;;;13.30;99.90;;;;;;4947689;28;20661;-72
2021/09/30 09:08:26;;;;;;;4.83;2.47;;;13.50;99.90;;;;;;4964234;28;20221;-72
2021/09/30 09:10:55;;;;;;;5.83;2.30;;;13.80;99.90;;;;;;4961222;28;20217;-72
2021/09/30 09:13:23;;;;;;;8.63;2.80;;;13.90;99.90;;;;;;4962731;28;20711;-72
2021/09/30 09:15:54;;;;;;;7.63;2.60;;;14.10;99.90;;;;;;4960801;28;20210;-72
2021/09/30 09:18:22;;;;;;;5.33;2.53;;;14.20;99.90;;;;;;4961016;28;20214;-72
2021/09/30 09:21:01;;;;;;;4.37;2.30;;;14.20;99.90;;;;;;4960213;28;20213;-72
2021/09/30 09:23:29;;;;;;;7.80;3.10;;;14.50;99.90;;;;;;4957829;28;20212;-72
2021/09/30 09:26:08;;;;;;;7.30;2.83;;;14.80;99.90;;;;;;4961625;28;20206;-72
2021/09/30 09:28:38;;;;;;;6.37;2.20;;;14.70;99.90;;;;;;4953741;28;20594;-72
2021/09/30 09:31:05;;;;;;;7.93;2.73;;;14.90;99.90;;;;;;4959174;28;20605;-72
2021/09/30 09:33:35;;;;;;;7.30;2.10;;;15.20;99.90;;;;;;4956467;28;20581;-72
2021/09/30 09:36:05;;;;;;;8.87;2.30;;;15.10;99.90;;;;;;4957412;28;20695;-72
2021/09/30 09:38:47;;;;;;;7.27;2.30;;;15.10;99.90;;;;;;4958648;28;20214;-72
2021/09/30 09:41:23;;;;;;;8.33;2.70;;;15.10;99.90;;;;;;4959660;28;20565;-72
2021/09/30 09:43:52;;;;;;;8.80;2.43;;;15.10;99.90;;;;;;4964146;28;20225;-72
2021/09/30 09:46:21;;;;;;;6.37;2.20;;;14.70;99.90;;;;;;4964467;28;20599;-72
2021/09/30 09:48:56;;;;;;;7.80;2.40;;;15.00;99.90;;;;;;4955108;28;20579;-72
2021/09/30 09:51:24;;;;;;;7.87;2.10;;;14.90;99.90;;;;;;4957184;28;20240;-72
2021/09/30 09:53:56;;;;;;;5.77;1.97;;;15.00;99.90;;;;;;4956939;28;20206;-72
2021/09/30 09:56:24;;;;;;;10.80;2.17;;;15.40;99.90;;;;;;4945909;28;20260;-72
2021/09/30 09:58:55;;;;;;;3.50;2.13;;;15.70;99.90;;;;;;4954114;28;20205;-72
2021/09/30 10:01:25;;;;;;;4.83;2.03;;;16.00;99.90;;;;;;4965440;28;20200;-72
2021/09/30 10:04:00;;;;;;;7.53;2.47;;;15.60;99.90;;;;;;4960097;28;20305;-72
2021/09/30 10:06:31;;;;;;;7.30;2.17;;;15.70;99.90;;;;;;4958965;28;20201;-72
2021/09/30 10:08:58;;;;;;;5.33;1.83;;;16.10;99.90;;;;;;4963774;28;20632;-72
2021/09/30 10:11:27;;;;;;;5.72;1.98;;;16.20;99.90;;;;;;4960281;28;20598;-72
2021/09/30 10:13:57;;;;;;;7.88;1.80;;;16.30;99.90;;;;;;4967978;28;20205;-72
2021/09/30 10:16:27;;;;;;;6.53;2.10;;;16.50;99.90;;;;;;4962631;28;20202;-72
2021/09/30 10:18:57;;;;;;;5.55;1.92;;;16.50;99.90;;;;;;4965663;28;20234;-72
2021/09/30 10:21:24;;;;;;;5.53;2.03;;;16.10;99.90;;;;;;4962014;28;20198;-72
2021/09/30 10:23:54;;;;;;;7.97;1.73;;;16.00;99.90;;;;;;4971560;28;20210;-72
2021/09/30 10:26:25;;;;;;;6.73;1.60;;;16.10;99.90;;;;;;4961719;28;20568;-72
2021/09/30 10:28:52;;;;;;;3.95;1.30;;;16.60;99.90;;;;;;4969969;28;20202;-72
2021/09/30 10:31:27;;;;;;;5.97;1.70;;;16.70;99.90;;;;;;4967333;28;20223;-72
2021/09/30 10:33:55;;;;;;;7.25;2.35;;;16.60;99.90;;;;;;4960171;28;20236;-72
2021/09/30 10:36:31;;;;;;;3.75;1.60;;;16.70;99.90;;;;;;4958150;28;20211;-72
2021/09/30 10:39:30;;;;;;;3.25;1.70;;;16.60;99.90;;;;;;4963877;28;20558;-72
2021/09/30 10:42:00;;;;;;;4.95;1.80;;;17.00;99.90;;;;;;4957965;28;20198;-72
2021/09/30 10:44:34;;;;;;;5.05;1.95;;;17.00;99.90;;;;;;4963910;28;20202;-72
2021/09/30 10:47:03;;;;;;;5.35;1.70;;;17.30;99.90;;;;;;4961112;28;20666;-72
2021/09/30 10:49:44;;;;;;;5.93;1.50;;;16.90;99.90;;;;;;4967085;28;20201;-72
2021/09/30 10:52:30;;;;;;;4.25;1.90;;;17.30;99.90;;;;;;4969160;28;20264;-72
2021/09/30 10:55:24;;;;;;;4.55;1.40;;;17.40;99.90;;;;;;4964886;28;20229;-72
2021/09/30 10:57:52;;;;;;;5.38;1.80;;;16.60;99.90;;;;;;4962996;28;20272;-72
2021/09/30 11:00:47;;;;;;;7.20;2.22;;;16.80;99.90;;;;;;4966482;28;20206;-72
2021/09/30 11:03:21;;;;;;;6.30;2.10;;;17.30;99.90;;;;;;4961049;28;20201;-72
2021/09/30 11:06:12;;;;;;;8.27;1.80;;;17.00;99.90;;;;;;4969309;28;20209;-72
2021/09/30 11:08:39;;;;;;;7.57;1.88;;;16.90;99.90;;;;;;4959004;28;20206;-72
2021/09/30 11:11:11;;;;;;;4.75;1.52;;;16.80;99.90;;;;;;4973918;28;20583;-72
2021/09/30 11:13:40;;;;;;;3.85;1.80;;;16.90;99.90;;;;;;4973142;28;20206;-72
2021/09/30 11:16:10;;;;;;;4.50;2.00;;;17.30;99.60;;;;;;4974272;28;20232;-72
2021/09/30 11:18:50;;;;;;;2.75;1.73;;;16.80;98.60;;;;;;4974741;28;20209;-72
2021/09/30 11:21:43;;;;;;;5.13;1.77;;;16.50;99.20;;;;;;4975092;28;20618;-72
2021/09/30 11:24:11;;;;;;;6.65;1.83;;;16.30;99.90;;;;;;4964981;28;20209;-72
2021/09/30 11:27:13;;;;;;;3.38;1.63;;;16.30;99.90;;;;;;4973718;28;20684;-72
2021/09/30 11:29:41;;;;;;;6.78;1.92;;;16.10;99.90;;;;;;4969438;28;20220;-72
2021/09/30 11:32:25;;;;;;;3.88;2.00;;;16.20;99.90;;;;;;4972673;28;20692;-72
2021/09/30 11:34:55;;;;;;;4.70;1.50;;;16.70;99.90;;;;;;4971349;28;20201;-72
2021/09/30 11:37:26;;;;;;;2.95;1.63;;;17.40;99.20;;;;;;4959987;28;20206;-71
2021/09/30 11:39:56;;;;;;;6.78;1.77;;;17.20;99.20;;;;;;4967114;28;20645;-72
2021/09/30 11:42:24;;;;;;;4.75;1.52;;;17.00;99.50;;;;;;4965075;28;20212;-72
2021/09/30 11:44:58;;;;;;;5.55;1.77;;;17.00;99.40;;;;;;4970284;28;20206;-72
2021/09/30 11:47:26;;;;;;;4.18;1.63;;;16.70;99.10;;;;;;4966316;28;20233;-71
2021/09/30 11:49:54;;;;;;;4.60;1.30;;;16.60;98.40;;;;;;4958608;28;20564;-71
2021/09/30 11:52:22;;;;;;;8.82;1.90;;;17.10;98.30;;;;;;4963701;28;20680;-71
2021/09/30 11:54:49;;;;;;;11.23;2.08;;;16.90;98.50;;;;;;4959178;28;20220;-71
2021/09/30 11:57:21;;;;;;;6.03;1.65;;;16.70;99.70;;;;;;4968538;28;20221;-71
2021/09/30 11:59:48;;;;;;;4.10;1.60;;;17.10;98.70;;;;;;4968605;28;20672;-71
2021/09/30 12:02:16;;;;;;;6.88;2.33;;;17.80;98.60;;;;;;4959722;28;20209;-71
2021/09/30 12:04:45;;;;;;;4.13;1.83;;;17.90;98.00;;;;;;4966895;28;20574;-71
2021/09/30 12:07:19;;;;;;;7.57;1.83;;;18.00;97.90;;;;;;4965296;28;20201;-71
2021/09/30 12:09:46;;;;;;;5.03;1.70;;;18.10;96.30;;;;;;4969453;28;20205;-71
2021/09/30 12:12:13;;;;;;;4.38;1.80;;;18.10;97.00;;;;;;4963410;28;20225;-71
2021/09/30 12:14:42;;;;;;;7.35;1.65;;;17.80;96.10;;;;;;4970826;28;20206;-71
2021/09/30 12:17:12;;;;;;;6.20;1.48;;;17.40;96.90;;;;;;4965804;28;20210;-71
2021/09/30 12:19:41;;;;;;;5.45;1.70;;;17.10;96.90;;;;;;4969244;28;20205;-71
2021/09/30 12:22:11;;;;;;;5.18;1.42;;;17.20;96.60;;;;;;4966955;28;20568;-71
2021/09/30 12:24:44;;;;;;;4.45;1.42;;;17.20;97.20;;;;;;4965115;28;20208;-71
2021/09/30 12:27:12;;;;;;;6.00;2.50;;;17.00;98.10;;;;;;4968074;28;20212;-71
2021/09/30 12:29:43;;;;;;;3.25;1.75;;;16.40;98.00;;;;;;4965006;28;20297;-71
2021/09/30 12:32:15;;;;;;;5.28;1.70;;;16.30;98.00;;;;;;4966460;28;20217;-71
2021/09/30 12:34:53;;;;;;;7.53;1.58;;;16.60;97.90;;;;;;4970440;28;20210;-71
2021/09/30 12:37:26;;;;;;;7.70;2.03;;;16.30;97.10;;;;;;4952683;28;20205;-71
2021/09/30 12:40:02;;;;;;;6.25;1.67;;;16.30;97.90;;;;;;4949293;28;20627;-71
2021/09/30 12:42:29;;;;;;;6.47;1.92;;;16.50;98.30;;;;;;4968586;28;20219;-71
2021/09/30 12:44:57;;;;;;;4.10;1.70;;;17.10;98.00;;;;;;4966999;28;20214;-72
2021/09/30 12:47:35;;;;;;;3.67;2.00;;;16.80;97.10;;;;;;4965118;28;20203;-71
2021/09/30 12:50:05;;;;;;;5.18;1.80;;;16.50;97.80;;;;;;4963800;28;20210;-71
2021/09/30 12:52:32;;;;;;;5.72;1.65;;;16.60;97.50;;;;;;4965755;28;20226;-71
2021/09/30 12:55:03;;;;;;;7.75;1.90;;;16.80;97.40;;;;;;4964621;28;20214;-71
2021/09/30 12:57:36;;;;;;;4.75;1.58;;;16.90;96.00;;;;;;4970680;28;20236;-71
2021/09/30 13:00:08;;;;;;;5.60;2.05;;;16.60;96.40;;;;;;4964472;28;20211;-71
2021/09/30 13:02:35;;;;;;;8.73;2.00;;;16.40;97.00;;;;;;4969848;28;20217;-71
2021/09/30 13:05:02;;;;;;;4.10;1.83;;;16.10;96.80;;;;;;4967264;28;20215;-71
2021/09/30 13:07:47;;;;;;;8.55;1.75;;;16.10;97.70;;;;;;4966708;28;20209;-71
2021/09/30 13:10:17;;;;;;;9.15;2.28;;;16.70;98.30;;;;;;4961793;28;20655;-71
2021/09/30 13:13:00;;;;;;;6.28;1.90;;;16.90;97.10;;;;;;4968726;28;20252;-71
2021/09/30 13:15:47;;;;;;;6.05;1.70;;;16.50;97.40;;;;;;4964985;28;20205;-71
2021/09/30 13:18:16;;;;;;;5.68;2.03;;;16.20;97.30;;;;;;4965405;28;20575;-71
2021/09/30 13:21:07;;;;;;;7.55;2.30;;;15.80;97.20;;;;;;4968291;28;20308;-71
2021/09/30 13:23:34;;;;;;;7.50;2.10;;;15.80;98.40;;;;;;4961740;28;20201;-71
2021/09/30 13:26:00;;;;;;;4.10;1.40;;;15.90;98.30;;;;;;4964658;28;20672;-71
2021/09/30 13:28:29;;;;;;;5.10;1.90;;;15.80;98.00;;;;;;4964761;28;20203;-71
2021/09/30 13:30:56;;;;;;;6.93;1.80;;;16.00;98.40;;;;;;4968874;28;20201;-71
2021/09/30 13:33:23;;;;;;;5.60;2.07;;;16.50;96.50;;;;;;4965196;28;20209;-71
2021/09/30 13:35:50;;;;;;;5.35;1.88;;;16.60;97.30;;;;;;4966205;28;20201;-71
2021/09/30 13:38:18;;;;;;;7.10;1.80;;;16.40;98.40;;;;;;4969357;28;21791;-71
2021/09/30 13:40:45;;;;;;;3.33;1.38;;;16.10;96.60;;;;;;4967184;28;20564;-71
2021/09/30 13:43:13;;;;;;;8.60;1.93;;;15.90;97.40;;;;;;4968673;28;20214;-70
2021/09/30 13:45:41;;;;;;;5.40;2.00;;;15.80;98.30;;;;;;4959824;28;20261;-71
2021/09/30 13:48:08;;;;;;;3.58;1.45;;;15.80;98.30;;;;;;4962310;28;20217;-71
2021/09/30 13:50:35;;;;;;;10.55;2.35;;;16.50;98.30;;;;;;4956613;28;20214;-71
2021/09/30 13:53:02;;;;;;;5.30;1.63;;;16.70;96.90;;;;;;4960748;28;20261;-71
2021/09/30 13:55:32;;;;;;;3.88;1.15;;;16.90;95.40;;;;;;4960864;28;20222;-71
2021/09/30 13:58:00;;;;;;;6.05;1.85;;;17.10;95.20;;;;;;4960177;28;20595;-71
2021/09/30 14:00:26;;;;;;;5.50;2.25;;;17.00;94.90;;;;;;4959150;28;20205;-71
2021/09/30 14:02:54;;;;;;;5.28;1.80;;;17.30;95.10;;;;;;4961896;28;20212;-71
2021/09/30 14:05:21;;;;;;;4.35;1.95;;;17.30;95.30;;;;;;4961478;28;20228;-71
2021/09/30 14:07:49;;;;;;;5.55;1.30;;;17.20;94.90;;;;;;4958193;28;20434;-71
2021/09/30 14:10:18;;;;;;;4.90;1.40;;;17.30;94.90;;;;;;4956509;28;20710;-71
2021/09/30 14:12:49;;;;;;;3.22;1.65;;;16.70;93.50;;;;;;4960659;28;20723;-71
2021/09/30 14:15:16;;;;;;;4.20;1.48;;;16.60;94.30;;;;;;4958755;28;20211;-71
2021/09/30 14:17:43;;;;;;;3.72;1.42;;;16.50;95.50;;;;;;4961563;28;20213;-71
2021/09/30 14:20:12;;;;;;;5.68;1.33;;;16.30;95.50;;;;;;4963645;28;20210;-71
2021/09/30 14:22:40;;;;;;;5.63;1.33;;;16.60;94.80;;;;;;4962805;28;20549;-70
2021/09/30 14:25:09;;;;;;;4.15;1.80;;;16.80;94.50;;;;;;4960476;28;20207;-71
2021/09/30 14:27:36;;;;;;;7.10;1.30;;;17.00;94.70;;;;;;4965778;28;20206;-71
2021/09/30 14:30:06;;;;;;;5.13;1.10;;;17.20;93.90;;;;;;4962326;28;20210;-71
2021/09/30 14:32:32;;;;;;;7.22;1.67;;;16.80;93.50;;;;;;4961438;28;20228;-71
2021/09/30 14:34:59;;;;;;;5.20;1.73;;;16.50;94.00;;;;;;4959417;28;20210;-71
2021/09/30 14:37:26;;;;;;;8.35;1.73;;;16.30;94.30;;;;;;4959475;28;20221;-71
2021/09/30 14:39:53;;;;;;;4.20;1.33;;;16.30;95.10;;;;;;4964641;28;20206;-71
2021/09/30 14:42:20;;;;;;;7.67;1.80;;;16.00;95.20;;;;;;4964137;28;20691;-71
2021/09/30 14:44:47;;;;;;;7.38;2.25;;;15.80;96.00;;;;;;4960701;28;20583;-71
2021/09/30 14:47:16;;;;;;;4.87;1.67;;;15.60;95.20;;;;;;4959268;28;20592;-71
2021/09/30 14:49:43;;;;;;;7.00;1.88;;;15.50;95.70;;;;;;4963131;28;20211;-71
2021/09/30 14:52:12;;;;;;;6.83;1.93;;;15.60;95.40;;;;;;4963406;28;20222;-72
2021/09/30 14:54:40;;;;;;;4.97;1.80;;;15.60;95.60;;;;;;4963355;28;20221;-71
2021/09/30 14:57:07;;;;;;;3.77;1.97;;;15.90;96.00;;;;;;4964565;28;20587;-71
2021/09/30 14:59:34;;;;;;;4.80;1.63;;;15.90;97.10;;;;;;4962245;28;20691;-71
2021/09/30 15:02:01;;;;;;;4.07;1.55;;;15.80;96.60;;;;;;4964727;28;20209;-71
2021/09/30 15:04:30;;;;;;;9.17;1.87;;;15.90;97.50;;;;;;4964481;28;20207;-71
2021/09/30 15:06:57;;;;;;;7.85;1.85;;;16.00;97.40;;;;;;4967387;28;20673;-71
2021/09/30 15:09:24;;;;;;;7.33;1.97;;;16.10;96.90;;;;;;4963977;28;20220;-72
2021/09/30 15:11:51;;;;;;;5.83;1.60;;;16.10;95.50;;;;;;4963890;28;20233;-71
2021/09/30 15:14:18;;;;;;;4.32;1.33;;;15.90;95.00;;;;;;4967434;28;20622;-71
2021/09/30 15:16:52;;;;;;;5.67;1.70;;;15.60;95.20;;;;;;4968666;28;20216;-71
2021/09/30 15:19:22;;;;;;;7.07;1.70;;;15.40;95.60;;;;;;4966926;28;20209;-71